sensor_id;sensor_type;location;lat;lon;timestamp;pressure;altitude;pressure_sealevel;temperature;humidity
61109;BME280;46995;55.740;37.402;2023-08-06T00:00:08;99770.69;;;20.38;74.95
61109;BME280;46995;55.740;37.402;2023-08-06T00:02:34;99769.84;;;20.38;75.44
61109;BME280;46995;55.740;37.402;2023-08-06T00:05:00;99766.53;;;20.36;75.43
61109;BME280;46995;55.740;37.402;2023-08-06T00:07:25;99771.91;;;20.36;75.93
61109;BME280;46995;55.740;37.402;2023-08-06T00:09:51;99773.94;;;20.34;76.23
61109;BME280;46995;55.740;37.402;2023-08-06T00:12:17;99784.66;;;20.34;76.21
61109;BME280;46995;55.740;37.402;2023-08-06T00:17:38;99780.50;;;20.31;75.93
61109;BME280;46995;55.740;37.402;2023-08-06T00:20:03;99775.13;;;20.31;75.83
61109;BME280;46995;55.740;37.402;2023-08-06T00:22:32;99768.94;;;20.30;76.11
61109;BME280;46995;55.740;37.402;2023-08-06T00:24:57;99775.31;;;20.29;76.21
61109;BME280;46995;55.740;37.402;2023-08-06T00:27:23;99781.50;;;20.30;76.28
61109;BME280;46995;55.740;37.402;2023-08-06T00:29:49;99770.13;;;20.28;76.20
61109;BME280;46995;55.740;37.402;2023-08-06T00:32:14;99771.31;;;20.25;76.19
61109;BME280;46995;55.740;37.402;2023-08-06T00:34:40;99779.56;;;20.24;75.80
61109;BME280;46995;55.740;37.402;2023-08-06T00:37:06;99777.06;;;20.22;75.93
61109;BME280;46995;55.740;37.402;2023-08-06T00:39:32;99784.47;;;20.20;75.54
61109;BME280;46995;55.740;37.402;2023-08-06T00:41:58;99783.66;;;20.20;75.94
61109;BME280;46995;55.740;37.402;2023-08-06T00:44:24;99780.13;;;20.19;76.49
61109;BME280;46995;55.740;37.402;2023-08-06T00:46:49;99783.84;;;20.18;75.48
61109;BME280;46995;55.740;37.402;2023-08-06T00:49:15;99784.00;;;20.17;75.88
61109;BME280;46995;55.740;37.402;2023-08-06T00:51:41;99780.69;;;20.15;76.16
61109;BME280;46995;55.740;37.402;2023-08-06T00:54:08;99781.88;;;20.12;76.14
61109;BME280;46995;55.740;37.402;2023-08-06T00:56:34;99783.91;;;20.10;76.04
61109;BME280;46995;55.740;37.402;2023-08-06T00:59:01;99781.44;;;20.09;75.95
61109;BME280;46995;55.740;37.402;2023-08-06T01:01:27;99779.78;;;20.08;76.11
61109;BME280;46995;55.740;37.402;2023-08-06T01:03:53;99778.94;;;20.07;76.17
61109;BME280;46995;55.740;37.402;2023-08-06T01:06:24;99782.63;;;20.06;75.69
61109;BME280;46995;55.740;37.402;2023-08-06T01:08:56;99783.66;;;20.05;75.70
61109;BME280;46995;55.740;37.402;2023-08-06T01:11:49;99785.69;;;20.03;76.81
61109;BME280;46995;55.740;37.402;2023-08-06T01:14:28;99786.72;;;20.02;76.18
61109;BME280;46995;55.740;37.402;2023-08-06T01:16:54;99785.03;;;20.01;76.53
61109;BME280;46995;55.740;37.402;2023-08-06T01:19:20;99783.38;;;20.00;77.03
61109;BME280;46995;55.740;37.402;2023-08-06T01:21:46;99785.44;;;19.98;76.59
61109;BME280;46995;55.740;37.402;2023-08-06T01:24:12;99791.97;;;19.96;76.08
61109;BME280;46995;55.740;37.402;2023-08-06T01:26:45;99793.19;;;19.93;76.54
61109;BME280;46995;55.740;37.402;2023-08-06T01:29:25;99788.84;;;19.92;76.88
61109;BME280;46995;55.740;37.402;2023-08-06T01:31:53;99794.22;;;19.92;75.66
61109;BME280;46995;55.740;37.402;2023-08-06T01:34:22;99793.56;;;19.90;76.71
61109;BME280;46995;55.740;37.402;2023-08-06T01:36:48;99799.75;;;19.91;77.19
61109;BME280;46995;55.740;37.402;2023-08-06T01:39:15;99799.94;;;19.89;76.48
61109;BME280;46995;55.740;37.402;2023-08-06T01:41:41;99797.25;;;19.89;76.77
61109;BME280;46995;55.740;37.402;2023-08-06T01:44:06;99801.81;;;19.88;76.60
61109;BME280;46995;55.740;37.402;2023-08-06T01:46:32;99809.00;;;19.88;76.94
61109;BME280;46995;55.740;37.402;2023-08-06T01:48:57;99802.16;;;19.85;77.05
61109;BME280;46995;55.740;37.402;2023-08-06T01:51:23;99807.50;;;19.85;77.17
61109;BME280;46995;55.740;37.402;2023-08-06T01:53:48;99804.84;;;19.85;77.09
61109;BME280;46995;55.740;37.402;2023-08-06T01:56:14;99807.69;;;19.84;76.61
61109;BME280;46995;55.740;37.402;2023-08-06T01:58:40;99805.84;;;19.84;77.26
61109;BME280;46995;55.740;37.402;2023-08-06T02:01:05;99808.53;;;19.84;77.67
61109;BME280;46995;55.740;37.402;2023-08-06T02:03:31;99806.69;;;19.85;77.60
61109;BME280;46995;55.740;37.402;2023-08-06T02:05:57;99812.88;;;19.85;77.46
61109;BME280;46995;55.740;37.402;2023-08-06T02:08:22;99812.88;;;19.85;77.27
61109;BME280;46995;55.740;37.402;2023-08-06T02:10:48;99811.03;;;19.86;77.73
61109;BME280;46995;55.740;37.402;2023-08-06T02:13:13;99814.53;;;19.86;77.64
61109;BME280;46995;55.740;37.402;2023-08-06T02:15:43;99810.03;;;19.87;77.67
61109;BME280;46995;55.740;37.402;2023-08-06T02:18:09;99805.50;;;19.87;77.98
61109;BME280;46995;55.740;37.402;2023-08-06T02:20:34;99813.34;;;19.89;77.76
61109;BME280;46995;55.740;37.402;2023-08-06T02:23:01;99815.00;;;19.90;77.06
61109;BME280;46995;55.740;37.402;2023-08-06T02:25:26;99787.91;;;19.70;77.18
61109;BME280;46995;55.740;37.402;2023-08-06T02:27:52;99829.06;;;19.92;77.84
61109;BME280;46995;55.740;37.402;2023-08-06T02:30:17;99829.06;;;19.92;77.56
61109;BME280;46995;55.740;37.402;2023-08-06T02:32:43;99830.72;;;19.93;76.98
61109;BME280;46995;55.740;37.402;2023-08-06T02:35:09;99826.22;;;19.94;76.89
61109;BME280;46995;55.740;37.402;2023-08-06T02:37:34;99826.22;;;19.94;76.97
61109;BME280;46995;55.740;37.402;2023-08-06T02:40:00;99823.16;;;19.97;77.42
61109;BME280;46995;55.740;37.402;2023-08-06T02:42:26;99822.97;;;19.98;77.58
61109;BME280;46995;55.740;37.402;2023-08-06T02:44:52;99830.63;;;20.01;77.55
61109;BME280;46995;55.740;37.402;2023-08-06T02:47:20;99829.22;;;20.05;77.33
61109;BME280;46995;55.740;37.402;2023-08-06T02:49:46;99824.34;;;20.09;77.02
61109;BME280;46995;55.740;37.402;2023-08-06T02:52:11;99827.66;;;20.11;77.07
61109;BME280;46995;55.740;37.402;2023-08-06T02:54:37;99829.78;;;20.15;77.51
61109;BME280;46995;55.740;37.402;2023-08-06T02:57:03;99812.94;;;20.21;76.69
61109;BME280;46995;55.740;37.402;2023-08-06T02:59:31;99813.41;;;20.25;76.95
61109;BME280;46995;55.740;37.402;2023-08-06T03:02:18;99815.38;;;20.31;77.47
61109;BME280;46995;55.740;37.402;2023-08-06T03:04:53;99810.25;;;20.36;76.65
61109;BME280;46995;55.740;37.402;2023-08-06T03:07:22;99817.78;;;20.41;77.19
61109;BME280;46995;55.740;37.402;2023-08-06T03:09:54;99819.69;;;20.47;77.49
61109;BME280;46995;55.740;37.402;2023-08-06T03:12:20;99811.91;;;20.52;77.12
61109;BME280;46995;55.740;37.402;2023-08-06T03:14:47;99812.81;;;20.59;76.93
61109;BME280;46995;55.740;37.402;2023-08-06T03:17:12;99809.38;;;20.65;77.34
61109;BME280;46995;55.740;37.402;2023-08-06T03:19:38;99806.56;;;20.73;77.18
61109;BME280;46995;55.740;37.402;2023-08-06T03:22:04;99805.63;;;20.81;76.46
61109;BME280;46995;55.740;37.402;2023-08-06T03:24:33;99813.75;;;20.87;76.75
61109;BME280;46995;55.740;37.402;2023-08-06T03:26:59;99810.91;;;20.95;77.21
61109;BME280;46995;55.740;37.402;2023-08-06T03:29:24;99816.19;;;21.03;77.49
61109;BME280;46995;55.740;37.402;2023-08-06T03:31:52;99817.88;;;21.11;76.35
61109;BME280;46995;55.740;37.402;2023-08-06T03:34:17;99816.97;;;21.19;76.95
61109;BME280;46995;55.740;37.402;2023-08-06T03:36:44;99811.44;;;21.27;76.99
61109;BME280;46995;55.740;37.402;2023-08-06T03:39:09;99813.78;;;21.36;77.04
61109;BME280;46995;55.740;37.402;2023-08-06T03:41:36;99825.88;;;21.47;76.81
61109;BME280;46995;55.740;37.402;2023-08-06T03:44:01;99820.38;;;21.55;76.64
61109;BME280;46995;55.740;37.402;2023-08-06T03:46:29;99811.13;;;21.64;76.61
61109;BME280;46995;55.740;37.402;2023-08-06T03:48:55;99816.13;;;21.74;76.35
61109;BME280;46995;55.740;37.402;2023-08-06T03:51:22;99811.22;;;21.84;76.14
61109;BME280;46995;55.740;37.402;2023-08-06T03:53:48;99814.63;;;21.92;76.00
61109;BME280;46995;55.740;37.402;2023-08-06T03:56:14;99813.44;;;22.02;75.90
61109;BME280;46995;55.740;37.402;2023-08-06T03:58:40;99815.56;;;22.13;75.73
61109;BME280;46995;55.740;37.402;2023-08-06T04:01:07;99819.75;;;22.22;75.65
61109;BME280;46995;55.740;37.402;2023-08-06T04:03:38;99814.00;;;22.31;75.34
61109;BME280;46995;55.740;37.402;2023-08-06T04:06:04;99808.66;;;22.38;74.88
61109;BME280;46995;55.740;37.402;2023-08-06T04:08:30;99803.53;;;22.50;74.51
61109;BME280;46995;55.740;37.402;2023-08-06T04:10:55;99805.41;;;22.62;74.51
61109;BME280;46995;55.740;37.402;2023-08-06T04:13:21;99797.59;;;22.74;73.91
61109;BME280;46995;55.740;37.402;2023-08-06T04:15:47;99806.53;;;22.88;73.65
61109;BME280;46995;55.740;37.402;2023-08-06T04:18:13;99805.72;;;23.00;73.02
61109;BME280;46995;55.740;37.402;2023-08-06T04:20:45;99805.94;;;23.12;72.70
61109;BME280;46995;55.740;37.402;2023-08-06T04:23:11;99808.03;;;23.23;72.39
61109;BME280;46995;55.740;37.402;2023-08-06T04:25:38;99805.13;;;23.31;72.21
61109;BME280;46995;55.740;37.402;2023-08-06T04:28:04;99805.13;;;23.38;72.17
61109;BME280;46995;55.740;37.402;2023-08-06T04:30:30;99809.50;;;23.45;71.87
61109;BME280;46995;55.740;37.402;2023-08-06T04:32:56;99801.41;;;23.52;71.75
61109;BME280;46995;55.740;37.402;2023-08-06T04:35:22;99806.59;;;23.60;71.54
61109;BME280;46995;55.740;37.402;2023-08-06T04:37:47;99804.31;;;23.70;71.11
61109;BME280;46995;55.740;37.402;2023-08-06T04:40:13;99802.19;;;23.79;71.05
61109;BME280;46995;55.740;37.402;2023-08-06T04:42:39;99803.41;;;23.89;70.56
61109;BME280;46995;55.740;37.402;2023-08-06T04:45:04;99806.72;;;23.98;70.60
61109;BME280;46995;55.740;37.402;2023-08-06T04:47:36;99802.13;;;24.05;69.94
61109;BME280;46995;55.740;37.402;2023-08-06T04:50:02;99809.97;;;24.13;70.02
61109;BME280;46995;55.740;37.402;2023-08-06T04:52:29;99808.75;;;24.22;69.88
61109;BME280;46995;55.740;37.402;2023-08-06T04:54:54;99807.91;;;24.28;70.03
61109;BME280;46995;55.740;37.402;2023-08-06T04:57:20;99803.28;;;24.35;69.35
61109;BME280;46995;55.740;37.402;2023-08-06T04:59:46;99806.16;;;24.40;69.43
61109;BME280;46995;55.740;37.402;2023-08-06T05:02:12;99799.91;;;24.46;69.08
61109;BME280;46995;55.740;37.402;2023-08-06T05:04:38;99803.44;;;24.54;69.06
61109;BME280;46995;55.740;37.402;2023-08-06T05:07:05;99801.50;;;24.61;68.27
61109;BME280;46995;55.740;37.402;2023-08-06T05:09:30;99793.56;;;24.66;68.12
61109;BME280;46995;55.740;37.402;2023-08-06T05:11:56;99805.19;;;24.73;68.25
61109;BME280;46995;55.740;37.402;2023-08-06T05:14:22;99792.47;;;24.80;67.67
61109;BME280;46995;55.740;37.402;2023-08-06T05:16:47;99794.94;;;24.88;67.70
61109;BME280;46995;55.740;37.402;2023-08-06T05:19:13;99794.28;;;24.93;67.24
61109;BME280;46995;55.740;37.402;2023-08-06T05:21:39;99792.16;;;25.01;67.58
61109;BME280;46995;55.740;37.402;2023-08-06T05:24:04;99792.31;;;25.06;67.16
61109;BME280;46995;55.740;37.402;2023-08-06T05:26:30;99791.66;;;25.11;66.98
61109;BME280;46995;55.740;37.402;2023-08-06T05:28:55;99788.47;;;25.20;67.42
61109;BME280;46995;55.740;37.402;2023-08-06T05:31:21;99780.66;;;25.30;67.39
61109;BME280;46995;55.740;37.402;2023-08-06T05:33:47;99788.66;;;25.44;66.55
61109;BME280;46995;55.740;37.402;2023-08-06T05:36:12;99780.72;;;25.49;66.14
61109;BME280;46995;55.740;37.402;2023-08-06T05:38:38;99786.28;;;25.54;65.98
61109;BME280;46995;55.740;37.402;2023-08-06T05:41:04;99782.94;;;25.58;66.29
61109;BME280;46995;55.740;37.402;2023-08-06T05:43:29;99776.41;;;25.66;66.58
61109;BME280;46995;55.740;37.402;2023-08-06T05:45:56;99777.19;;;25.73;65.71
61109;BME280;46995;55.740;37.402;2023-08-06T05:48:22;99777.34;;;25.78;65.45
61109;BME280;46995;55.740;37.402;2023-08-06T05:50:51;99780.19;;;25.83;65.08
61109;BME280;46995;55.740;37.402;2023-08-06T05:53:17;99772.00;;;25.90;64.99
61109;BME280;46995;55.740;37.402;2023-08-06T05:55:45;99768.41;;;25.96;65.01
61109;BME280;46995;55.740;37.402;2023-08-06T05:58:11;99777.47;;;26.01;65.05
61109;BME280;46995;55.740;37.402;2023-08-06T06:00:36;99780.34;;;26.06;65.18
61109;BME280;46995;55.740;37.402;2023-08-06T06:03:02;99778.22;;;26.08;64.90
61109;BME280;46995;55.740;37.402;2023-08-06T06:05:28;99772.97;;;26.13;65.12
61109;BME280;46995;55.740;37.402;2023-08-06T06:08:14;99773.53;;;26.22;64.13
61109;BME280;46995;55.740;37.402;2023-08-06T06:10:39;99773.69;;;26.27;64.53
61109;BME280;46995;55.740;37.402;2023-08-06T06:13:08;99774.78;;;26.38;63.91
61109;BME280;46995;55.740;37.402;2023-08-06T06:15:36;99769.03;;;26.46;63.77
61109;BME280;46995;55.740;37.402;2023-08-06T06:18:02;99774.38;;;26.52;64.18
61109;BME280;46995;55.740;37.402;2023-08-06T06:20:28;99770.97;;;26.57;63.31
61109;BME280;46995;55.740;37.402;2023-08-06T06:22:53;99754.25;;;26.60;63.61
61109;BME280;46995;55.740;37.402;2023-08-06T06:25:19;99763.56;;;26.64;63.09
61109;BME280;46995;55.740;37.402;2023-08-06T06:27:47;99765.97;;;26.72;63.09
61109;BME280;46995;55.740;37.402;2023-08-06T06:30:12;99764.56;;;26.81;63.05
61109;BME280;46995;55.740;37.402;2023-08-06T06:32:38;99764.28;;;26.89;62.74
61109;BME280;46995;55.740;37.402;2023-08-06T06:35:05;99766.63;;;26.97;62.75
61109;BME280;46995;55.740;37.402;2023-08-06T06:37:31;99767.38;;;27.05;61.83
61109;BME280;46995;55.740;37.402;2023-08-06T06:39:57;99768.53;;;27.09;61.97
61109;BME280;46995;55.740;37.402;2023-08-06T06:42:22;99762.19;;;27.15;61.74
61109;BME280;46995;55.740;37.402;2023-08-06T06:44:51;99754.19;;;27.20;61.39
61109;BME280;46995;55.740;37.402;2023-08-06T06:47:17;99755.34;;;27.24;61.78
61109;BME280;46995;55.740;37.402;2023-08-06T06:49:43;99762.06;;;27.33;62.23
61109;BME280;46995;55.740;37.402;2023-08-06T06:52:09;99756.31;;;27.41;61.54
61109;BME280;46995;55.740;37.402;2023-08-06T06:54:34;99753.22;;;27.49;61.14
61109;BME280;46995;55.740;37.402;2023-08-06T06:57:00;99746.91;;;27.55;60.21
61109;BME280;46995;55.740;37.402;2023-08-06T06:59:25;99748.06;;;27.59;60.68
61109;BME280;46995;55.740;37.402;2023-08-06T07:01:51;99744.91;;;27.62;60.57
61109;BME280;46995;55.740;37.402;2023-08-06T07:04:19;99743.84;;;27.63;59.82
61109;BME280;46995;55.740;37.402;2023-08-06T07:06:45;99754.81;;;27.68;59.58
61109;BME280;46995;55.740;37.402;2023-08-06T07:09:11;99747.84;;;27.72;59.82
61109;BME280;46995;55.740;37.402;2023-08-06T07:11:36;99755.03;;;27.78;59.94
61109;BME280;46995;55.740;37.402;2023-08-06T07:14:08;99753.00;;;27.86;59.68
61109;BME280;46995;55.740;37.402;2023-08-06T07:16:37;99748.25;;;27.93;60.20
61109;BME280;46995;55.740;37.402;2023-08-06T07:19:15;99747.31;;;27.99;59.17
61109;BME280;46995;55.740;37.402;2023-08-06T07:21:41;99746.34;;;28.05;59.14
61109;BME280;46995;55.740;37.402;2023-08-06T07:24:09;99746.69;;;28.08;58.73
61109;BME280;46995;55.740;37.402;2023-08-06T07:26:41;99741.63;;;28.12;58.64
61109;BME280;46995;55.740;37.402;2023-08-06T07:29:07;99749.03;;;28.16;58.11
61109;BME280;46995;55.740;37.402;2023-08-06T07:31:33;99738.19;;;28.16;58.51
61109;BME280;46995;55.740;37.402;2023-08-06T07:34:00;99731.69;;;28.17;58.29
61109;BME280;46995;55.740;37.402;2023-08-06T07:36:25;99731.47;;;28.19;57.01
61109;BME280;46995;55.740;37.402;2023-08-06T07:38:51;99736.38;;;28.22;57.86
61109;BME280;46995;55.740;37.402;2023-08-06T07:41:21;99734.88;;;28.26;57.73
61109;BME280;46995;55.740;37.402;2023-08-06T07:43:49;99731.66;;;28.29;57.04
61109;BME280;46995;55.740;37.402;2023-08-06T07:46:15;99740.97;;;28.33;57.62
61109;BME280;46995;55.740;37.402;2023-08-06T07:48:41;99721.47;;;28.36;57.18
61109;BME280;46995;55.740;37.402;2023-08-06T07:51:06;99729.22;;;28.44;58.07
61109;BME280;46995;55.740;37.402;2023-08-06T07:53:32;99739.13;;;28.50;56.76
61109;BME280;46995;55.740;37.402;2023-08-06T07:55:58;99735.16;;;28.58;57.37
61109;BME280;46995;55.740;37.402;2023-08-06T07:58:27;99736.34;;;28.62;57.09
61109;BME280;46995;55.740;37.402;2023-08-06T08:00:55;99731.00;;;28.67;57.43
61109;BME280;46995;55.740;37.402;2023-08-06T08:03:21;99725.91;;;28.71;57.03
61109;BME280;46995;55.740;37.402;2023-08-06T08:05:46;99723.81;;;28.73;56.21
61109;BME280;46995;55.740;37.402;2023-08-06T08:08:13;99724.34;;;28.75;56.14
61109;BME280;46995;55.740;37.402;2023-08-06T08:10:39;99721.41;;;28.76;56.53
61109;BME280;46995;55.740;37.402;2023-08-06T08:13:04;99716.28;;;28.80;56.51
61109;BME280;46995;55.740;37.402;2023-08-06T08:15:30;99712.03;;;28.84;56.15
61109;BME280;46995;55.740;37.402;2023-08-06T08:17:58;99721.34;;;28.88;55.69
61109;BME280;46995;55.740;37.402;2023-08-06T08:20:23;99715.97;;;28.93;56.09
61109;BME280;46995;55.740;37.402;2023-08-06T08:22:49;99717.13;;;28.97;56.67
61109;BME280;46995;55.740;37.402;2023-08-06T08:25:15;99714.50;;;29.02;55.59
61109;BME280;46995;55.740;37.402;2023-08-06T08:27:41;99708.22;;;29.01;56.09
61109;BME280;46995;55.740;37.402;2023-08-06T08:30:07;99699.50;;;28.99;56.05
61109;BME280;46995;55.740;37.402;2023-08-06T08:32:32;99707.66;;;28.99;56.21
61109;BME280;46995;55.740;37.402;2023-08-06T08:34:58;99716.97;;;29.03;56.01
61109;BME280;46995;55.740;37.402;2023-08-06T08:37:26;99705.09;;;29.10;56.36
61109;BME280;46995;55.740;37.402;2023-08-06T08:39:52;99704.91;;;29.16;56.28
61109;BME280;46995;55.740;37.402;2023-08-06T08:42:17;99709.38;;;29.22;55.61
61109;BME280;46995;55.740;37.402;2023-08-06T08:44:43;99704.25;;;29.26;55.14
61109;BME280;46995;55.740;37.402;2023-08-06T08:47:10;99702.94;;;29.28;54.94
61109;BME280;46995;55.740;37.402;2023-08-06T08:49:36;99701.63;;;29.31;54.37
61109;BME280;46995;55.740;37.402;2023-08-06T08:52:02;99715.00;;;29.32;54.79
61109;BME280;46995;55.740;37.402;2023-08-06T08:54:28;99701.97;;;29.34;53.99
61109;BME280;46995;55.740;37.402;2023-08-06T08:56:54;99697.09;;;29.36;54.94
61109;BME280;46995;55.740;37.402;2023-08-06T08:59:20;99698.19;;;29.35;53.99
61109;BME280;46995;55.740;37.402;2023-08-06T09:01:46;99699.81;;;29.36;55.24
61109;BME280;46995;55.740;37.402;2023-08-06T09:04:16;99695.53;;;29.40;54.14
61109;BME280;46995;55.740;37.402;2023-08-06T09:06:42;99691.22;;;29.44;54.42
61109;BME280;46995;55.740;37.402;2023-08-06T09:09:11;99696.44;;;29.46;54.01
61109;BME280;46995;55.740;37.402;2023-08-06T09:11:42;99693.19;;;29.49;54.21
61109;BME280;46995;55.740;37.402;2023-08-06T09:14:08;99691.28;;;29.50;54.10
61109;BME280;46995;55.740;37.402;2023-08-06T09:16:34;99687.50;;;29.51;53.84
61109;BME280;46995;55.740;37.402;2023-08-06T09:19:07;99690.53;;;29.54;53.47
61109;BME280;46995;55.740;37.402;2023-08-06T09:21:33;99688.72;;;29.60;54.81
61109;BME280;46995;55.740;37.402;2023-08-06T09:24:01;99687.69;;;29.66;54.72
61109;BME280;46995;55.740;37.402;2023-08-06T09:26:35;99693.16;;;29.66;53.96
61109;BME280;46995;55.740;37.402;2023-08-06T09:29:01;99688.19;;;29.63;54.01
61109;BME280;46995;55.740;37.402;2023-08-06T09:31:41;99690.91;;;29.63;54.05
61109;BME280;46995;55.740;37.402;2023-08-06T09:34:17;99678.41;;;29.62;53.85
61109;BME280;46995;55.740;37.402;2023-08-06T09:36:43;99674.56;;;29.63;53.67
61109;BME280;46995;55.740;37.402;2023-08-06T09:39:27;99672.44;;;29.65;53.39
61109;BME280;46995;55.740;37.402;2023-08-06T09:41:56;99665.97;;;29.71;54.47
61109;BME280;46995;55.740;37.402;2023-08-06T09:44:22;99662.75;;;29.74;53.66
61109;BME280;46995;55.740;37.402;2023-08-06T09:46:52;99669.19;;;29.68;53.80
61109;BME280;46995;55.740;37.402;2023-08-06T09:49:19;99667.69;;;29.55;54.02
61109;BME280;46995;55.740;37.402;2023-08-06T09:51:48;99666.94;;;29.60;54.08
61109;BME280;46995;55.740;37.402;2023-08-06T09:54:19;99657.88;;;29.76;52.55
61109;BME280;46995;55.740;37.402;2023-08-06T09:56:45;99656.44;;;29.90;52.67
61109;BME280;46995;55.740;37.402;2023-08-06T09:59:10;99653.78;;;29.95;52.33
61109;BME280;46995;55.740;37.402;2023-08-06T10:01:39;99654.28;;;29.92;52.99
61109;BME280;46995;55.740;37.402;2023-08-06T10:04:05;99647.25;;;29.96;53.04
61109;BME280;46995;55.740;37.402;2023-08-06T10:06:33;99647.88;;;30.03;52.78
61109;BME280;46995;55.740;37.402;2023-08-06T10:09:00;99646.03;;;30.09;52.61
61109;BME280;46995;55.740;37.402;2023-08-06T10:11:25;99652.38;;;30.14;52.63
61109;BME280;46995;55.740;37.402;2023-08-06T10:13:54;99637.19;;;30.23;53.24
61109;BME280;46995;55.740;37.402;2023-08-06T10:16:20;99633.94;;;30.26;53.59
61109;BME280;46995;55.740;37.402;2023-08-06T10:18:46;99636.66;;;30.26;52.62
61109;BME280;46995;55.740;37.402;2023-08-06T10:21:12;99631.25;;;30.31;52.06
61109;BME280;46995;55.740;37.402;2023-08-06T10:23:40;99629.72;;;30.41;52.36
61109;BME280;46995;55.740;37.402;2023-08-06T10:26:05;99622.09;;;30.43;50.98
61109;BME280;46995;55.740;37.402;2023-08-06T10:28:35;99626.72;;;30.42;50.10
61109;BME280;46995;55.740;37.402;2023-08-06T10:31:01;99620.44;;;30.42;52.74
61109;BME280;46995;55.740;37.402;2023-08-06T10:33:39;99622.09;;;30.43;53.06
61109;BME280;46995;55.740;37.402;2023-08-06T10:36:06;99627.84;;;30.46;52.20
61109;BME280;46995;55.740;37.402;2023-08-06T10:38:34;99624.66;;;30.49;51.81
61109;BME280;46995;55.740;37.402;2023-08-06T10:41:03;99616.72;;;30.48;51.27
61109;BME280;46995;55.740;37.402;2023-08-06T10:43:29;99617.78;;;30.47;51.30
61109;BME280;46995;55.740;37.402;2023-08-06T10:45:56;99616.75;;;30.53;52.25
61109;BME280;46995;55.740;37.402;2023-08-06T10:48:29;99623.34;;;30.57;52.38
61109;BME280;46995;55.740;37.402;2023-08-06T10:50:56;99614.06;;;30.58;51.07
61109;BME280;46995;55.740;37.402;2023-08-06T10:53:24;99615.72;;;30.59;52.33
61109;BME280;46995;55.740;37.402;2023-08-06T10:55:50;99619.03;;;30.61;51.57
61109;BME280;46995;55.740;37.402;2023-08-06T10:58:16;99614.69;;;30.65;52.19
61109;BME280;46995;55.740;37.402;2023-08-06T11:00:42;99605.47;;;30.71;51.12
61109;BME280;46995;55.740;37.402;2023-08-06T11:03:07;99618.56;;;30.74;51.56
61109;BME280;46995;55.740;37.402;2023-08-06T11:05:34;99616.91;;;30.73;51.31
61109;BME280;46995;55.740;37.402;2023-08-06T11:07:59;99613.13;;;30.74;50.76
61109;BME280;46995;55.740;37.402;2023-08-06T11:10:25;99610.41;;;30.79;51.14
61109;BME280;46995;55.740;37.402;2023-08-06T11:12:50;99611.31;;;30.90;51.28
61109;BME280;46995;55.740;37.402;2023-08-06T11:15:16;99602.91;;;30.96;51.33
61109;BME280;46995;55.740;37.402;2023-08-06T11:17:44;99611.13;;;31.01;50.39
61109;BME280;46995;55.740;37.402;2023-08-06T11:20:10;99609.84;;;31.09;50.63
61109;BME280;46995;55.740;37.402;2023-08-06T11:22:36;99604.69;;;31.12;48.68
61109;BME280;46995;55.740;37.402;2023-08-06T11:25:02;99603.03;;;31.11;50.50
61109;BME280;46995;55.740;37.402;2023-08-06T11:27:29;99603.56;;;31.08;49.18
61109;BME280;46995;55.740;37.402;2023-08-06T11:29:54;99602.19;;;31.11;50.12
61109;BME280;46995;55.740;37.402;2023-08-06T11:32:20;99598.41;;;31.17;49.92
61109;BME280;46995;55.740;37.402;2023-08-06T11:34:46;99594.91;;;31.27;49.41
61109;BME280;46995;55.740;37.402;2023-08-06T11:37:11;99593.34;;;31.41;48.85
61109;BME280;46995;55.740;37.402;2023-08-06T11:39:37;99593.66;;;31.49;49.90
61109;BME280;46995;55.740;37.402;2023-08-06T11:42:04;99590.09;;;31.44;48.79
61109;BME280;46995;55.740;37.402;2023-08-06T11:44:30;99593.34;;;31.41;49.34
61109;BME280;46995;55.740;37.402;2023-08-06T11:46:59;99591.16;;;31.43;48.51
61109;BME280;46995;55.740;37.402;2023-08-06T11:52:24;99594.72;;;31.43;48.46
61109;BME280;46995;55.740;37.402;2023-08-06T11:57:37;99586.28;;;31.45;48.97
61109;BME280;46995;55.740;37.402;2023-08-06T12:00:06;99584.03;;;31.37;49.44
61109;BME280;46995;55.740;37.402;2023-08-06T12:02:42;99588.34;;;31.23;49.91
61109;BME280;46995;55.740;37.402;2023-08-06T12:05:14;99575.66;;;31.01;49.58
61109;BME280;46995;55.740;37.402;2023-08-06T12:07:44;99578.81;;;30.83;50.06
61109;BME280;46995;55.740;37.402;2023-08-06T12:10:10;99574.69;;;30.76;50.55
61109;BME280;46995;55.740;37.402;2023-08-06T12:12:36;99564.88;;;30.80;50.00
61109;BME280;46995;55.740;37.402;2023-08-06T12:15:03;99570.81;;;31.08;49.25
61109;BME280;46995;55.740;37.402;2023-08-06T12:17:29;99561.09;;;32.20;47.96
61109;BME280;46995;55.740;37.402;2023-08-06T12:19:55;99564.91;;;32.90;46.76
61109;BME280;46995;55.740;37.402;2023-08-06T12:22:21;99560.53;;;33.69;44.96
61109;BME280;46995;55.740;37.402;2023-08-06T12:24:46;99560.91;;;34.69;43.38
61109;BME280;46995;55.740;37.402;2023-08-06T12:27:13;99564.78;;;34.63;43.60
61109;BME280;46995;55.740;37.402;2023-08-06T12:29:48;99559.16;;;34.10;43.65
61109;BME280;46995;55.740;37.402;2023-08-06T12:32:16;99563.72;;;34.59;42.67
61109;BME280;46995;55.740;37.402;2023-08-06T12:34:42;99561.81;;;34.88;41.92
61109;BME280;46995;55.740;37.402;2023-08-06T12:37:08;99551.69;;;35.07;42.61
61109;BME280;46995;55.740;37.402;2023-08-06T12:39:34;99556.44;;;34.78;41.91
61109;BME280;46995;55.740;37.402;2023-08-06T12:42:03;99556.78;;;34.37;42.13
61109;BME280;46995;55.740;37.402;2023-08-06T12:44:30;99555.78;;;34.23;40.72
61109;BME280;46995;55.740;37.402;2023-08-06T12:46:56;99550.38;;;34.08;42.74
61109;BME280;46995;55.740;37.402;2023-08-06T12:49:22;99546.50;;;33.80;41.84
61109;BME280;46995;55.740;37.402;2023-08-06T12:51:51;99555.88;;;33.69;43.70
61109;BME280;46995;55.740;37.402;2023-08-06T12:54:17;99549.03;;;33.61;43.74
61109;BME280;46995;55.740;37.402;2023-08-06T12:56:43;99537.81;;;33.58;42.76